createdAt,value
2023-04-30T00:01:04.027Z,19.10
2023-04-30T00:03:31.574Z,18.67
2023-04-30T00:05:59.091Z,19.53
2023-04-30T00:08:26.809Z,20.07
2023-04-30T00:10:54.211Z,19.90
2023-04-30T00:13:21.599Z,19.53
2023-04-30T00:15:48.984Z,20.00
2023-04-30T00:18:16.356Z,19.90
2023-04-30T00:20:43.736Z,20.07
2023-04-30T00:23:11.081Z,21.07
2023-04-30T00:25:38.478Z,21.57
2023-04-30T00:28:06.152Z,21.00
2023-04-30T00:30:33.485Z,19.87
2023-04-30T00:33:00.901Z,20.00
2023-04-30T00:35:29.219Z,20.77
2023-04-30T00:37:56.595Z,19.97
2023-04-30T00:40:23.969Z,21.20
2023-04-30T00:42:52.992Z,20.90
2023-04-30T00:45:21.991Z,18.30
2023-04-30T00:47:49.348Z,20.07
2023-04-30T00:50:16.716Z,20.70
2023-04-30T00:52:44.488Z,21.80
2023-04-30T00:55:12.593Z,21.93
2023-04-30T00:57:40.884Z,21.83
2023-04-30T01:00:11.738Z,22.57
2023-04-30T01:02:39.245Z,21.60
2023-04-30T01:05:07.285Z,21.40
2023-04-30T01:07:35.721Z,23.33
2023-04-30T01:10:03.469Z,22.70
2023-04-30T01:12:47.351Z,24.37
2023-04-30T01:15:16.282Z,24.77
2023-04-30T01:17:48.183Z,23.27
2023-04-30T01:20:15.555Z,25.07
2023-04-30T01:22:44.724Z,24.90
2023-04-30T01:25:13.610Z,25.23
2023-04-30T01:27:59.143Z,23.57
2023-04-30T01:30:26.601Z,24.63
2023-04-30T01:32:53.996Z,25.40
2023-04-30T01:35:22.987Z,24.13
2023-04-30T01:38:01.241Z,25.90
2023-04-30T01:40:33.076Z,24.53
2023-04-30T01:43:02.200Z,23.53
2023-04-30T01:45:49.604Z,23.90
2023-04-30T01:48:18.494Z,26.30
2023-04-30T01:50:53.373Z,26.87
2023-04-30T01:53:22.473Z,26.37
2023-04-30T01:55:54.017Z,23.77
2023-04-30T01:58:23.175Z,24.83
2023-04-30T02:00:50.619Z,26.20
2023-04-30T02:03:18.162Z,26.07
2023-04-30T02:05:45.532Z,24.47
2023-04-30T02:08:12.954Z,24.20
2023-04-30T02:10:40.401Z,26.30
2023-04-30T02:13:07.785Z,23.40
2023-04-30T02:15:35.159Z,25.73
2023-04-30T02:18:02.587Z,28.80
2023-04-30T02:20:30.296Z,24.40
2023-04-30T02:22:58.097Z,28.00
2023-04-30T02:25:26.219Z,25.87
2023-04-30T02:27:53.732Z,28.30
2023-04-30T02:30:21.103Z,26.60
2023-04-30T02:32:48.510Z,24.90
2023-04-30T02:35:15.862Z,26.77
2023-04-30T02:37:43.332Z,26.43
2023-04-30T02:40:10.972Z,28.47
2023-04-30T02:42:38.429Z,28.67
2023-04-30T02:45:06.144Z,28.80
2023-04-30T02:47:33.524Z,28.20
2023-04-30T02:50:00.944Z,30.90
2023-04-30T02:52:28.247Z,28.50
2023-04-30T02:54:55.633Z,30.67
2023-04-30T02:57:23.113Z,27.67
2023-04-30T02:59:50.501Z,27.07
2023-04-30T03:02:19.536Z,28.30
2023-04-30T03:04:46.919Z,28.03
2023-04-30T03:07:14.300Z,26.60
2023-04-30T03:09:41.671Z,28.80
2023-04-30T03:12:09.062Z,28.33
2023-04-30T03:14:36.446Z,29.60
2023-04-30T03:17:03.837Z,28.03
2023-04-30T03:19:31.585Z,29.03
2023-04-30T03:21:59.047Z,30.53
2023-04-30T03:24:26.415Z,27.67
2023-04-30T03:26:53.834Z,28.53
2023-04-30T03:29:21.193Z,29.50
2023-04-30T03:31:48.633Z,30.40
2023-04-30T03:34:16.005Z,27.53
2023-04-30T03:36:43.382Z,29.13
2023-04-30T03:39:11.234Z,27.93
2023-04-30T03:41:38.616Z,31.77
2023-04-30T03:44:06.263Z,30.30
2023-04-30T03:46:33.752Z,31.37
2023-04-30T03:49:01.129Z,27.40
2023-04-30T03:51:28.512Z,29.90
2023-04-30T03:53:55.924Z,27.50
2023-04-30T03:56:23.307Z,26.27
2023-04-30T03:58:50.684Z,30.20
2023-04-30T04:01:18.064Z,31.07
2023-04-30T04:03:45.467Z,28.77
2023-04-30T04:06:12.871Z,29.37
2023-04-30T04:08:41.856Z,26.83
2023-04-30T04:11:10.218Z,29.80
2023-04-30T04:13:37.594Z,29.10
2023-04-30T04:16:05.083Z,28.57
2023-04-30T04:18:32.440Z,30.20
2023-04-30T04:21:01.194Z,34.10
2023-04-30T04:23:28.730Z,29.07
2023-04-30T04:25:57.319Z,32.30
2023-04-30T04:28:25.566Z,30.37
2023-04-30T04:30:52.954Z,30.10
2023-04-30T04:33:20.328Z,25.10
2023-04-30T04:35:47.735Z,25.23
2023-04-30T04:38:15.098Z,29.87
2023-04-30T04:40:45.128Z,25.97
2023-04-30T04:43:12.433Z,31.70
2023-04-30T04:45:40.522Z,29.77
2023-04-30T04:48:07.973Z,30.87
2023-04-30T04:50:35.952Z,28.63
2023-04-30T04:53:03.333Z,27.27
2023-04-30T04:55:31.589Z,30.67
2023-04-30T04:57:58.956Z,28.33
2023-04-30T05:00:26.660Z,28.90
2023-04-30T05:02:54.101Z,27.10
2023-04-30T05:05:21.520Z,24.80
2023-04-30T05:07:50.555Z,25.80
2023-04-30T05:10:17.929Z,27.03
2023-04-30T05:12:45.258Z,28.10
2023-04-30T05:15:12.625Z,25.17
2023-04-30T05:17:40.042Z,23.87
2023-04-30T05:20:07.742Z,23.10
2023-04-30T05:22:35.144Z,23.37
2023-04-30T05:25:02.506Z,27.77
2023-04-30T05:27:29.903Z,28.40
2023-04-30T05:29:57.387Z,22.60
2023-04-30T05:32:24.934Z,27.13
2023-04-30T05:34:52.812Z,25.57
2023-04-30T05:37:21.763Z,26.67
2023-04-30T05:39:49.514Z,25.93
2023-04-30T05:42:16.840Z,26.73
2023-04-30T05:44:44.219Z,25.20
2023-04-30T05:47:11.602Z,23.43
2023-04-30T05:49:38.973Z,22.10
2023-04-30T05:52:06.350Z,20.93
2023-04-30T05:54:33.730Z,23.83
2023-04-30T05:57:01.112Z,21.83
2023-04-30T05:59:28.569Z,20.23
2023-04-30T06:01:56.007Z,19.73
2023-04-30T06:04:23.436Z,18.73
2023-04-30T06:06:50.859Z,19.83
2023-04-30T06:09:18.320Z,18.17
2023-04-30T06:11:47.407Z,16.57
2023-04-30T06:14:14.963Z,16.30
2023-04-30T06:16:42.405Z,17.27
2023-04-30T06:19:09.736Z,15.10
2023-04-30T06:21:37.593Z,15.97
2023-04-30T06:24:05.154Z,14.27
2023-04-30T06:26:33.014Z,16.23
2023-04-30T06:29:00.394Z,13.93
2023-04-30T06:31:27.828Z,15.23
2023-04-30T06:33:55.332Z,14.40
2023-04-30T06:36:22.631Z,13.63
2023-04-30T06:38:50.024Z,12.67
2023-04-30T06:41:17.471Z,13.53
2023-04-30T06:43:45.152Z,12.57
2023-04-30T06:46:12.569Z,11.97
2023-04-30T06:48:40.299Z,14.60
2023-04-30T06:51:09.890Z,13.70
2023-04-30T06:53:36.825Z,10.50
2023-04-30T06:56:04.295Z,13.83
2023-04-30T06:58:31.660Z,15.33
2023-04-30T07:00:59.036Z,9.83
2023-04-30T07:03:27.190Z,11.17
2023-04-30T07:05:54.697Z,10.33
2023-04-30T07:08:22.199Z,9.00
2023-04-30T07:10:49.579Z,8.87
2023-04-30T07:13:17.026Z,9.50
2023-04-30T07:15:44.512Z,9.27
2023-04-30T07:18:12.273Z,8.97
2023-04-30T07:20:39.774Z,8.47
2023-04-30T07:23:07.123Z,9.80
2023-04-30T07:25:35.224Z,7.40
2023-04-30T07:28:02.863Z,7.80
2023-04-30T07:30:30.285Z,7.30
2023-04-30T07:32:57.628Z,7.17
2023-04-30T07:35:24.986Z,7.00
2023-04-30T07:37:52.391Z,7.70
2023-04-30T07:40:29.160Z,6.70
2023-04-30T07:42:48.772Z,6.70
2023-04-30T07:45:16.127Z,6.20
2023-04-30T07:47:44.404Z,6.73
2023-04-30T07:50:12.216Z,6.70
2023-04-30T07:52:39.575Z,5.63
2023-04-30T07:55:07.124Z,5.20
2023-04-30T07:57:34.505Z,4.60
2023-04-30T08:00:01.881Z,4.50
2023-04-30T08:02:29.314Z,4.97
2023-04-30T08:04:57.193Z,4.67
2023-04-30T08:07:25.354Z,4.40
2023-04-30T08:09:52.896Z,4.33
2023-04-30T08:12:20.711Z,3.70
2023-04-30T08:14:48.354Z,5.17
2023-04-30T08:17:15.716Z,4.30
2023-04-30T08:19:47.327Z,4.23
2023-04-30T08:22:14.637Z,4.43
2023-04-30T08:24:42.028Z,3.30
2023-04-30T08:27:09.390Z,2.60
2023-04-30T08:29:36.760Z,2.90
2023-04-30T08:32:05.353Z,3.17
2023-04-30T08:34:32.938Z,2.80
2023-04-30T08:37:00.329Z,2.17
2023-04-30T08:39:27.761Z,2.27
2023-04-30T08:42:00.570Z,2.87
2023-04-30T08:44:28.263Z,2.97
2023-04-30T08:46:56.563Z,2.50
2023-04-30T08:49:24.793Z,1.97
2023-04-30T08:51:52.653Z,2.13
2023-04-30T08:54:20.079Z,2.30
2023-04-30T08:56:47.450Z,2.47
2023-04-30T08:59:14.828Z,3.00
2023-04-30T09:01:43.060Z,2.70
2023-04-30T09:04:10.581Z,3.10
2023-04-30T09:06:38.214Z,2.43
2023-04-30T09:09:15.550Z,2.00
2023-04-30T09:11:43.281Z,2.50
2023-04-30T09:14:10.582Z,1.67
2023-04-30T09:16:51.093Z,1.93
2023-04-30T09:19:25.508Z,2.30
2023-04-30T09:21:53.242Z,2.30
2023-04-30T09:24:20.689Z,1.93
2023-04-30T09:26:48.228Z,2.00
2023-04-30T09:29:15.750Z,2.50
2023-04-30T09:31:44.991Z,2.33
2023-04-30T09:34:12.461Z,2.23
2023-04-30T09:36:41.330Z,1.70
2023-04-30T09:39:12.646Z,2.17
2023-04-30T09:41:39.831Z,2.00
2023-04-30T09:44:07.200Z,2.13
2023-04-30T09:46:37.094Z,2.00
2023-04-30T09:49:05.563Z,1.90
2023-04-30T09:51:33.311Z,2.00
2023-04-30T09:54:02.217Z,2.27
2023-04-30T09:56:29.960Z,1.87
2023-04-30T09:58:58.384Z,2.60
2023-04-30T10:01:27.492Z,2.40
2023-04-30T10:03:55.570Z,1.80
2023-04-30T10:06:23.586Z,1.80
2023-04-30T10:08:56.056Z,2.10
2023-04-30T10:11:24.966Z,2.10
2023-04-30T10:13:53.903Z,2.37
2023-04-30T10:16:22.815Z,2.60
2023-04-30T10:18:51.718Z,2.00
2023-04-30T10:21:21.096Z,2.40
2023-04-30T10:23:48.842Z,2.17
2023-04-30T10:26:16.785Z,3.03
2023-04-30T10:28:45.032Z,2.30
2023-04-30T10:31:13.162Z,2.10
2023-04-30T10:33:56.982Z,2.40
2023-04-30T10:36:30.219Z,2.50
2023-04-30T10:38:59.047Z,2.23
2023-04-30T10:41:28.053Z,2.17
2023-04-30T10:44:01.828Z,2.10
2023-04-30T10:46:29.528Z,2.10
2023-04-30T10:48:56.860Z,1.80
2023-04-30T10:51:24.228Z,1.90
2023-04-30T10:53:52.542Z,1.33
2023-04-30T10:56:32.573Z,1.67
2023-04-30T10:59:02.099Z,1.90
2023-04-30T11:01:30.761Z,1.97
2023-04-30T11:04:06.079Z,1.27
2023-04-30T11:06:51.511Z,1.70
2023-04-30T11:09:18.982Z,1.60
2023-04-30T11:11:47.202Z,1.70
2023-04-30T11:14:16.119Z,1.43
2023-04-30T11:16:43.481Z,1.23
2023-04-30T11:19:12.018Z,1.30
2023-04-30T11:21:40.914Z,1.90
2023-04-30T11:24:08.280Z,1.60
2023-04-30T11:26:53.874Z,1.60
2023-04-30T11:29:22.885Z,1.30
2023-04-30T11:31:51.078Z,1.53
2023-04-30T11:34:18.597Z,1.13
2023-04-30T11:36:46.924Z,1.77
2023-04-30T11:39:14.748Z,1.50
2023-04-30T11:41:43.630Z,1.10
2023-04-30T11:44:18.483Z,1.23
2023-04-30T11:46:46.535Z,1.57
2023-04-30T11:49:13.862Z,1.60
2023-04-30T11:51:41.736Z,1.47
2023-04-30T11:54:10.188Z,1.20
2023-04-30T11:56:41.513Z,1.73
2023-04-30T11:59:11.936Z,1.40
2023-04-30T12:01:40.028Z,1.80
2023-04-30T12:04:09.144Z,1.23
2023-04-30T12:06:36.657Z,1.30
2023-04-30T12:09:06.399Z,1.47
2023-04-30T12:11:34.658Z,1.43
2023-04-30T12:14:07.316Z,1.30
2023-04-30T12:16:46.425Z,1.40
2023-04-30T12:19:13.823Z,1.57
2023-04-30T12:21:44.442Z,1.30
2023-04-30T12:24:12.444Z,1.30
2023-04-30T12:26:40.959Z,1.33
2023-04-30T12:29:15.072Z,1.30
2023-04-30T12:31:41.173Z,1.20
2023-04-30T12:34:09.147Z,1.40
2023-04-30T12:36:37.182Z,1.30
2023-04-30T12:39:06.939Z,2.30
2023-04-30T12:41:35.873Z,1.50
2023-04-30T12:44:22.507Z,1.30
2023-04-30T12:46:50.615Z,1.50
2023-04-30T12:49:25.366Z,1.10
2023-04-30T12:51:53.221Z,2.20
2023-04-30T12:54:27.607Z,1.30
2023-04-30T12:57:00.888Z,1.77
2023-04-30T12:59:28.844Z,2.13
2023-04-30T13:01:56.457Z,1.73
2023-04-30T13:04:23.966Z,1.33
2023-04-30T13:06:51.375Z,1.60
2023-04-30T13:09:18.715Z,1.20
2023-04-30T13:11:47.057Z,1.17
2023-04-30T13:14:14.446Z,1.77
2023-04-30T13:16:42.159Z,1.50
2023-04-30T13:19:09.700Z,1.70
2023-04-30T13:21:37.361Z,1.00
2023-04-30T13:24:04.741Z,1.10
2023-04-30T13:26:32.110Z,1.40
2023-04-30T13:28:59.422Z,1.60
2023-04-30T13:31:26.907Z,1.20
2023-04-30T13:33:54.848Z,1.53
2023-04-30T13:36:22.174Z,1.50
2023-04-30T13:38:49.636Z,1.20
2023-04-30T13:41:16.997Z,0.90
2023-04-30T13:43:46.163Z,1.00
2023-04-30T13:46:13.628Z,1.50
2023-04-30T13:48:41.327Z,2.17
2023-04-30T13:51:08.692Z,1.30
2023-04-30T13:53:37.058Z,1.63
2023-04-30T13:56:04.486Z,1.30
2023-04-30T13:58:31.960Z,1.80
2023-04-30T14:00:59.522Z,0.90
2023-04-30T14:03:26.914Z,0.90
2023-04-30T14:05:55.054Z,1.30
2023-04-30T14:08:23.484Z,1.40
2023-04-30T14:10:51.068Z,1.83
2023-04-30T14:13:18.463Z,1.10
2023-04-30T14:15:46.917Z,1.60
2023-04-30T14:18:14.323Z,2.10
2023-04-30T14:20:41.937Z,1.00
2023-04-30T14:23:09.776Z,1.10
2023-04-30T14:25:37.442Z,1.10
2023-04-30T14:28:04.816Z,1.00
2023-04-30T14:30:32.182Z,0.80
2023-04-30T14:32:59.672Z,0.97
2023-04-30T14:35:27.538Z,0.93
2023-04-30T14:37:54.908Z,1.03
2023-04-30T14:40:22.273Z,2.27
2023-04-30T14:42:50.347Z,2.67
2023-04-30T14:45:17.966Z,1.10
2023-04-30T14:47:45.308Z,1.30
2023-04-30T14:50:12.652Z,1.67
2023-04-30T14:52:40.378Z,1.10
2023-04-30T14:55:07.910Z,1.50
2023-04-30T14:57:36.270Z,1.23
2023-04-30T15:00:04.082Z,1.20
2023-04-30T15:02:31.622Z,1.20
2023-04-30T15:04:59.082Z,1.10
2023-04-30T15:07:27.527Z,1.10
2023-04-30T15:09:55.190Z,0.90
2023-04-30T15:12:23.018Z,1.03
2023-04-30T15:14:50.386Z,2.10
2023-04-30T15:17:17.846Z,1.93
2023-04-30T15:19:45.264Z,1.40
2023-04-30T15:22:12.585Z,1.00
2023-04-30T15:24:39.940Z,0.97
2023-04-30T15:27:07.336Z,1.17
2023-04-30T15:29:34.709Z,0.90
2023-04-30T15:32:02.441Z,1.07
2023-04-30T15:34:29.941Z,1.63
2023-04-30T15:36:58.834Z,1.40
2023-04-30T15:39:26.568Z,1.27
2023-04-30T15:41:53.956Z,1.00
2023-04-30T15:44:21.334Z,1.80
2023-04-30T15:46:48.765Z,1.10
2023-04-30T15:49:16.119Z,1.23
2023-04-30T15:51:44.854Z,2.70
2023-04-30T15:54:13.689Z,0.90
2023-04-30T15:56:41.228Z,1.00
2023-04-30T15:59:08.523Z,4.00
2023-04-30T16:01:35.845Z,1.10
2023-04-30T16:04:03.962Z,1.00
2023-04-30T16:06:32.042Z,1.00
2023-04-30T16:08:59.537Z,0.83
2023-04-30T16:11:26.901Z,1.30
2023-04-30T16:13:54.263Z,0.90
2023-04-30T16:16:21.696Z,1.07
2023-04-30T16:18:50.093Z,1.03
2023-04-30T16:21:17.614Z,0.90
2023-04-30T16:23:47.477Z,1.10
2023-04-30T16:26:14.926Z,0.90
2023-04-30T16:28:42.295Z,1.30
2023-04-30T16:31:09.729Z,1.20
2023-04-30T16:33:37.114Z,1.00
2023-04-30T16:36:04.468Z,1.40
2023-04-30T16:38:31.765Z,2.60
2023-04-30T16:40:59.805Z,1.10
2023-04-30T16:43:27.191Z,1.20
2023-04-30T16:45:54.664Z,1.07
2023-04-30T16:48:22.044Z,1.00
2023-04-30T16:50:49.425Z,1.30
2023-04-30T16:53:16.751Z,1.00
2023-04-30T16:55:44.277Z,1.00
2023-04-30T16:58:11.590Z,1.00
2023-04-30T17:00:38.957Z,0.90
2023-04-30T17:03:06.351Z,0.90
2023-04-30T17:05:34.116Z,1.10
2023-04-30T17:08:01.479Z,0.80
2023-04-30T17:10:29.922Z,1.00
2023-04-30T17:12:59.274Z,1.00
2023-04-30T17:15:26.858Z,1.80
2023-04-30T17:17:54.236Z,1.27
2023-04-30T17:20:21.567Z,1.30
2023-04-30T17:22:48.927Z,1.30
2023-04-30T17:25:16.318Z,1.67
2023-04-30T17:27:43.611Z,1.17
2023-04-30T17:30:11.056Z,1.17
2023-04-30T17:32:38.559Z,1.27
2023-04-30T17:35:06.418Z,1.00
2023-04-30T17:37:35.066Z,1.00
2023-04-30T17:40:03.228Z,1.10
2023-04-30T17:42:31.880Z,0.97
2023-04-30T17:45:00.416Z,0.77
2023-04-30T17:47:27.845Z,1.00
2023-04-30T17:49:55.382Z,1.00
2023-04-30T17:52:22.945Z,1.10
2023-04-30T17:54:50.353Z,0.90
2023-04-30T17:57:17.690Z,1.10
2023-04-30T17:59:45.072Z,1.00
2023-04-30T18:02:12.437Z,1.10
2023-04-30T18:04:39.768Z,1.00
2023-04-30T18:07:08.022Z,1.10
2023-04-30T18:09:35.858Z,1.20
2023-04-30T18:12:03.641Z,1.10
2023-04-30T18:14:31.877Z,1.03
2023-04-30T18:16:59.262Z,1.30
2023-04-30T18:19:26.542Z,1.10
2023-04-30T18:21:55.538Z,1.13
2023-04-30T18:24:25.123Z,1.00
2023-04-30T18:26:52.610Z,1.33
2023-04-30T18:29:19.961Z,1.37
2023-04-30T18:31:47.507Z,1.30
2023-04-30T18:34:14.926Z,1.30
2023-04-30T18:36:44.961Z,1.30
2023-04-30T18:39:12.242Z,1.30
2023-04-30T18:41:39.642Z,1.50
2023-04-30T18:44:07.538Z,1.30
2023-04-30T18:46:35.996Z,1.80
2023-04-30T18:49:05.228Z,1.20
2023-04-30T18:51:32.604Z,1.30
2023-04-30T18:54:00.593Z,1.47
2023-04-30T18:56:27.908Z,1.57
2023-04-30T18:58:55.349Z,1.57
2023-04-30T19:01:24.493Z,1.40
2023-04-30T19:03:51.969Z,1.57
2023-04-30T19:06:19.460Z,1.43
2023-04-30T19:08:46.970Z,1.20
2023-04-30T19:11:14.862Z,1.60
2023-04-30T19:13:42.227Z,1.60
2023-04-30T19:16:09.623Z,1.17
2023-04-30T19:18:38.683Z,1.70
2023-04-30T19:21:06.015Z,1.60
2023-04-30T19:23:35.089Z,1.50
2023-04-30T19:26:02.824Z,1.90
2023-04-30T19:28:30.210Z,1.80
2023-04-30T19:30:57.689Z,1.50
2023-04-30T19:33:25.640Z,1.87
2023-04-30T19:35:57.218Z,1.83
2023-04-30T19:38:24.620Z,2.00
2023-04-30T19:40:53.611Z,1.93
2023-04-30T19:43:22.469Z,2.43
2023-04-30T19:45:53.795Z,2.53
2023-04-30T19:48:21.851Z,2.07
2023-04-30T19:50:49.981Z,1.80
2023-04-30T19:53:17.843Z,2.00
2023-04-30T19:55:46.269Z,2.00
2023-04-30T19:58:13.900Z,2.13
2023-04-30T20:00:43.013Z,1.70
2023-04-30T20:03:10.516Z,1.70
2023-04-30T20:05:39.226Z,1.87
2023-04-30T20:08:07.177Z,1.70
2023-04-30T20:10:35.994Z,2.20
2023-04-30T20:13:04.163Z,1.80
2023-04-30T20:15:32.687Z,1.70
2023-04-30T20:18:01.101Z,2.17
2023-04-30T20:20:29.297Z,2.10
2023-04-30T20:22:56.914Z,1.67
2023-04-30T20:25:31.294Z,1.90
2023-04-30T20:27:58.751Z,1.87
2023-04-30T20:30:26.129Z,2.00
2023-04-30T20:32:53.499Z,1.80
2023-04-30T20:35:21.177Z,2.40
2023-04-30T20:37:50.201Z,2.40
2023-04-30T20:40:18.255Z,2.30
2023-04-30T20:42:45.920Z,1.93
2023-04-30T20:45:13.275Z,2.30
2023-04-30T20:47:40.834Z,2.40
2023-04-30T20:50:08.201Z,2.20
2023-04-30T20:52:35.819Z,1.90
2023-04-30T20:55:03.276Z,2.37
2023-04-30T20:57:30.635Z,2.30
2023-04-30T20:59:58.242Z,2.23
2023-04-30T21:02:26.055Z,2.50
2023-04-30T21:04:53.516Z,2.30
2023-04-30T21:07:20.904Z,2.37
2023-04-30T21:09:48.284Z,2.27
2023-04-30T21:12:15.659Z,2.30
2023-04-30T21:14:43.019Z,1.97
2023-04-30T21:17:10.476Z,2.50
2023-04-30T21:19:37.868Z,2.10
2023-04-30T21:22:05.262Z,2.47
2023-04-30T21:24:32.690Z,2.20
2023-04-30T21:27:00.001Z,2.00
2023-04-30T21:29:27.497Z,2.40
2023-04-30T21:31:55.950Z,2.77
2023-04-30T21:34:23.313Z,2.17
2023-04-30T21:36:51.729Z,2.17
2023-04-30T21:39:19.097Z,2.30
2023-04-30T21:41:46.476Z,2.20
2023-04-30T21:44:14.216Z,2.60
2023-04-30T21:46:41.681Z,2.50
2023-04-30T21:49:09.740Z,2.43
2023-04-30T21:51:37.605Z,2.10
2023-04-30T21:54:05.687Z,2.73
2023-04-30T21:56:33.081Z,2.57
2023-04-30T21:59:00.442Z,2.30
2023-04-30T22:01:29.744Z,2.03
2023-04-30T22:03:58.121Z,2.40
2023-04-30T22:06:25.646Z,2.47
2023-04-30T22:08:53.018Z,2.03
2023-04-30T22:11:20.852Z,2.60
2023-04-30T22:13:48.220Z,2.60
2023-04-30T22:16:15.687Z,2.03
2023-04-30T22:18:43.005Z,2.60
2023-04-30T22:21:10.406Z,2.70
2023-04-30T22:23:37.767Z,2.80
2023-04-30T22:26:06.771Z,2.57
2023-04-30T22:28:34.148Z,2.77
2023-04-30T22:31:02.187Z,2.77
2023-04-30T22:33:29.555Z,2.77
2023-04-30T22:35:57.266Z,2.30
2023-04-30T22:38:24.645Z,2.40
2023-04-30T22:40:52.118Z,2.33
2023-04-30T22:43:19.465Z,2.53
2023-04-30T22:45:46.841Z,2.30
2023-04-30T22:48:14.935Z,2.70
2023-04-30T22:50:42.410Z,2.87
2023-04-30T22:53:10.135Z,2.47
2023-04-30T22:55:37.489Z,3.07
2023-04-30T22:58:04.877Z,2.93
2023-04-30T23:00:32.320Z,6.00
2023-04-30T23:02:59.800Z,4.37
2023-04-30T23:05:27.125Z,5.20
2023-04-30T23:07:54.512Z,3.67
2023-04-30T23:10:21.891Z,3.67
2023-04-30T23:12:49.267Z,4.27
2023-04-30T23:15:17.621Z,4.37
2023-04-30T23:17:45.349Z,4.70
2023-04-30T23:20:12.663Z,3.73
2023-04-30T23:22:39.967Z,4.20
2023-04-30T23:25:07.412Z,7.23
2023-04-30T23:27:34.777Z,6.93
2023-04-30T23:30:03.225Z,5.90
2023-04-30T23:32:31.456Z,4.00
2023-04-30T23:34:58.946Z,3.27
2023-04-30T23:37:26.320Z,7.30
2023-04-30T23:39:54.270Z,6.90
2023-04-30T23:42:21.930Z,6.43
2023-04-30T23:44:49.291Z,5.70
2023-04-30T23:47:16.677Z,8.10
2023-04-30T23:49:45.813Z,4.10
2023-04-30T23:52:14.164Z,4.40
2023-04-30T23:54:41.603Z,4.40
2023-04-30T23:57:09.243Z,5.90
2023-04-30T23:59:36.616Z,5.30
